createdAt,value
2022-09-15T00:00:31.676Z,93.26
2022-09-15T00:01:31.875Z,93.27
2022-09-15T00:02:32.061Z,93.26
2022-09-15T00:03:32.076Z,93.29
2022-09-15T00:04:32.297Z,93.16
2022-09-15T00:05:32.378Z,93.16
2022-09-15T00:06:32.466Z,93.12
2022-09-15T00:07:32.593Z,93.07
2022-09-15T00:08:32.725Z,93.08
2022-09-15T00:09:32.966Z,93.09
2022-09-15T00:10:32.995Z,93.03
2022-09-15T00:11:33.144Z,92.91
2022-09-15T00:12:33.233Z,93.01
2022-09-15T00:13:33.665Z,93.00
2022-09-15T00:14:33.487Z,93.00
2022-09-15T00:15:33.613Z,93.06
2022-09-15T00:16:33.804Z,92.91
2022-09-15T00:17:33.913Z,92.87
2022-09-15T00:18:34.186Z,92.90
2022-09-15T00:19:34.264Z,93.02
2022-09-15T00:20:34.284Z,93.01
2022-09-15T00:21:34.422Z,93.00
2022-09-15T00:22:34.563Z,93.04
2022-09-15T00:23:34.832Z,93.09
2022-09-15T00:24:34.840Z,93.09
2022-09-15T00:25:34.924Z,93.14
2022-09-15T00:26:35.040Z,93.05
2022-09-15T00:27:35.170Z,93.05
2022-09-15T00:28:35.424Z,93.14
2022-09-15T00:29:35.449Z,93.20
2022-09-15T00:30:35.641Z,93.18
2022-09-15T00:31:35.952Z,93.12
2022-09-15T00:32:35.821Z,93.04
2022-09-15T00:33:36.200Z,93.09
2022-09-15T00:34:36.209Z,93.15
2022-09-15T00:35:36.221Z,93.12
2022-09-15T00:36:36.362Z,93.17
2022-09-15T00:37:36.499Z,93.25
2022-09-15T00:38:36.719Z,93.31
2022-09-15T00:39:36.771Z,93.30
2022-09-15T00:40:36.909Z,93.28
2022-09-15T00:41:37.101Z,93.26
2022-09-15T00:42:37.163Z,93.25
2022-09-15T00:43:37.309Z,93.27
2022-09-15T00:44:37.467Z,93.28
2022-09-15T00:45:37.610Z,93.31
2022-09-15T00:46:37.759Z,93.29
2022-09-15T00:47:37.777Z,93.34
2022-09-15T00:48:37.912Z,93.37
2022-09-15T00:49:38.056Z,93.39
2022-09-15T00:50:38.196Z,93.44
2022-09-15T00:51:38.446Z,93.44
2022-09-15T00:52:38.476Z,93.43
2022-09-15T00:53:38.596Z,93.41
2022-09-15T00:54:38.749Z,93.35
2022-09-15T00:55:38.836Z,93.33
2022-09-15T00:56:39.085Z,93.38
2022-09-15T00:57:39.115Z,93.45
2022-09-15T00:58:39.265Z,93.49
2022-09-15T00:59:39.414Z,93.48
2022-09-15T01:00:39.545Z,93.54
2022-09-15T01:01:39.737Z,93.58
2022-09-15T01:02:39.863Z,93.55
2022-09-15T01:03:39.988Z,93.49
2022-09-15T01:04:40.072Z,93.52
2022-09-15T01:05:40.196Z,93.54
2022-09-15T01:06:40.334Z,93.49
2022-09-15T01:07:40.453Z,93.47
2022-09-15T01:08:40.697Z,93.46
2022-09-15T01:09:40.731Z,93.52
2022-09-15T01:10:40.852Z,93.59
2022-09-15T01:11:41.054Z,93.55
2022-09-15T01:12:41.082Z,93.60
2022-09-15T01:13:41.352Z,93.67
2022-09-15T01:14:41.470Z,93.72
2022-09-15T01:15:41.473Z,93.74
2022-09-15T01:16:41.685Z,93.74
2022-09-15T01:17:41.761Z,93.75
2022-09-15T01:18:41.975Z,93.76
2022-09-15T01:19:42.013Z,93.78
2022-09-15T01:20:42.160Z,93.82
2022-09-15T01:21:42.288Z,93.84
2022-09-15T01:22:42.610Z,93.84
2022-09-15T01:23:42.532Z,93.86
2022-09-15T01:24:42.677Z,93.86
2022-09-15T01:25:42.791Z,93.81
2022-09-15T01:26:42.937Z,93.82
2022-09-15T01:27:43.305Z,93.81
2022-09-15T01:28:43.890Z,93.80
2022-09-15T01:29:43.369Z,93.75
2022-09-15T01:30:43.446Z,93.75
2022-09-15T01:31:43.635Z,93.73
2022-09-15T01:32:43.708Z,93.73
2022-09-15T01:33:43.900Z,93.74
2022-09-15T01:34:43.979Z,93.75
2022-09-15T01:35:44.109Z,93.77
2022-09-15T01:36:44.236Z,93.77
2022-09-15T01:37:44.367Z,93.75
2022-09-15T01:38:44.725Z,93.74
2022-09-15T01:39:44.660Z,93.69
2022-09-15T01:40:44.726Z,93.60
2022-09-15T01:41:44.860Z,93.60
2022-09-15T01:42:45.007Z,93.65
2022-09-15T01:43:45.216Z,93.66
2022-09-15T01:44:45.325Z,93.68
2022-09-15T01:45:45.479Z,93.68
2022-09-15T01:46:45.526Z,93.68
2022-09-15T01:47:45.656Z,93.73
2022-09-15T01:48:45.876Z,93.71
2022-09-15T01:49:46.053Z,93.75
2022-09-15T01:50:46.044Z,93.78
2022-09-15T01:51:46.164Z,93.73
2022-09-15T01:52:46.334Z,93.71
2022-09-15T01:53:46.528Z,93.67
2022-09-15T01:54:46.574Z,93.72
2022-09-15T01:55:46.663Z,93.71
2022-09-15T01:56:46.788Z,93.72
2022-09-15T01:57:46.923Z,93.70
2022-09-15T01:58:47.172Z,93.72
2022-09-15T01:59:47.213Z,93.71
2022-09-15T02:00:47.348Z,93.68
2022-09-15T02:01:47.489Z,93.67
2022-09-15T02:02:47.593Z,93.66
2022-09-15T02:03:47.852Z,93.64
2022-09-15T02:04:47.852Z,93.65
2022-09-15T02:05:47.971Z,93.64
2022-09-15T02:06:48.120Z,93.67
2022-09-15T02:07:48.269Z,93.69
2022-09-15T02:08:48.391Z,93.71
2022-09-15T02:09:48.551Z,93.70
2022-09-15T02:10:48.643Z,93.67
2022-09-15T02:11:48.771Z,93.64
2022-09-15T02:12:49.022Z,93.61
2022-09-15T02:13:49.058Z,93.65
2022-09-15T02:14:49.200Z,93.62
2022-09-15T02:15:49.321Z,93.63
2022-09-15T02:16:49.495Z,93.60
2022-09-15T02:17:50.260Z,93.57
2022-09-15T02:18:49.709Z,93.56
2022-09-15T02:19:49.858Z,93.62
2022-09-15T02:20:49.969Z,93.64
2022-09-15T02:21:50.068Z,93.65
2022-09-15T02:22:50.192Z,93.68
2022-09-15T02:23:50.547Z,93.63
2022-09-15T02:24:50.460Z,93.65
2022-09-15T02:25:50.588Z,93.70
2022-09-15T02:26:50.715Z,93.73
2022-09-15T02:27:50.915Z,93.72
2022-09-15T02:28:51.075Z,93.67
2022-09-15T02:29:51.078Z,93.68
2022-09-15T02:30:51.166Z,93.73
2022-09-15T02:31:51.411Z,93.77
2022-09-15T02:32:51.435Z,93.85
2022-09-15T02:33:51.615Z,93.90
2022-09-15T02:34:51.697Z,93.95
2022-09-15T02:35:51.837Z,94.00
2022-09-15T02:36:51.973Z,93.97
2022-09-15T02:37:52.095Z,93.99
2022-09-15T02:38:52.447Z,94.02
2022-09-15T02:39:52.384Z,94.06
2022-09-15T02:40:52.474Z,94.11
2022-09-15T02:41:52.614Z,94.13
2022-09-15T02:42:52.754Z,94.18
2022-09-15T02:43:53.072Z,94.21
2022-09-15T02:44:53.023Z,94.24
2022-09-15T02:45:53.224Z,94.25
2022-09-15T02:46:53.293Z,94.25
2022-09-15T02:47:53.433Z,94.21
2022-09-15T02:48:53.724Z,94.22
2022-09-15T02:49:53.723Z,94.28
2022-09-15T02:50:53.814Z,94.27
2022-09-15T02:51:53.960Z,94.28
2022-09-15T02:52:54.081Z,94.33
2022-09-15T02:53:54.350Z,94.33
2022-09-15T02:54:54.436Z,94.23
2022-09-15T02:55:54.482Z,94.17
2022-09-15T02:56:54.633Z,94.15
2022-09-15T02:57:54.760Z,94.11
2022-09-15T02:58:54.978Z,94.12
2022-09-15T02:59:55.031Z,94.10
2022-09-15T03:00:55.204Z,94.11
2022-09-15T03:01:55.333Z,94.16
2022-09-15T03:02:55.422Z,94.18
2022-09-15T03:03:55.728Z,94.23
2022-09-15T03:04:55.647Z,94.28
2022-09-15T03:05:55.787Z,94.32
2022-09-15T03:06:55.929Z,94.33
2022-09-15T03:07:56.050Z,94.35
2022-09-15T03:08:56.248Z,94.40
2022-09-15T03:09:56.347Z,94.46
2022-09-15T03:10:56.448Z,94.49
2022-09-15T03:11:56.568Z,94.57
2022-09-15T03:12:56.712Z,94.59
2022-09-15T03:13:56.907Z,94.64
2022-09-15T03:14:56.994Z,94.73
2022-09-15T03:15:57.141Z,94.79
2022-09-15T03:16:57.268Z,94.79
2022-09-15T03:17:57.406Z,94.81
2022-09-15T03:18:57.694Z,94.79
2022-09-15T03:19:57.677Z,94.79
2022-09-15T03:20:57.806Z,94.80
2022-09-15T03:21:58.004Z,94.86
2022-09-15T03:22:58.085Z,94.91
2022-09-15T03:23:58.216Z,94.94
2022-09-15T03:24:58.364Z,94.88
2022-09-15T03:25:58.484Z,94.85
2022-09-15T03:26:58.685Z,94.85
2022-09-15T03:27:58.705Z,94.82
2022-09-15T03:28:58.845Z,94.85
2022-09-15T03:29:59.085Z,94.87
2022-09-15T03:30:59.114Z,94.91
2022-09-15T03:31:59.411Z,94.90
2022-09-15T03:32:59.380Z,94.91
2022-09-15T03:33:59.514Z,94.94
2022-09-15T03:34:59.643Z,94.99
2022-09-15T03:35:59.791Z,95.00
2022-09-15T03:37:00.057Z,95.02
2022-09-15T03:38:00.074Z,95.04
2022-09-15T03:39:00.159Z,95.08
2022-09-15T03:40:00.443Z,95.11
2022-09-15T03:41:00.430Z,95.10
2022-09-15T03:42:00.551Z,95.06
2022-09-15T03:43:00.672Z,95.03
2022-09-15T03:44:00.813Z,95.02
2022-09-15T03:45:00.998Z,95.01
2022-09-15T03:46:01.198Z,95.01
2022-09-15T03:47:01.210Z,95.00
2022-09-15T03:48:01.330Z,95.01
2022-09-15T03:49:01.598Z,95.02
2022-09-15T03:50:01.680Z,95.01
2022-09-15T03:51:01.719Z,95.01
2022-09-15T03:52:01.859Z,95.01
2022-09-15T03:53:01.979Z,95.01
2022-09-15T03:54:02.108Z,94.99
2022-09-15T03:55:02.311Z,94.97
2022-09-15T03:56:02.360Z,94.94
2022-09-15T03:57:02.498Z,94.94
2022-09-15T03:58:02.638Z,94.95
2022-09-15T03:59:02.781Z,94.96
2022-09-15T04:00:03.064Z,94.94
2022-09-15T04:01:03.141Z,94.91
2022-09-15T04:02:03.214Z,94.87
2022-09-15T04:03:03.306Z,94.86
2022-09-15T04:04:03.447Z,94.88
2022-09-15T04:05:03.610Z,94.87
2022-09-15T04:06:03.716Z,94.88
2022-09-15T04:07:03.840Z,94.88
2022-09-15T04:08:03.983Z,94.87
2022-09-15T04:09:04.105Z,94.86
2022-09-15T04:10:04.318Z,94.86
2022-09-15T04:11:04.365Z,94.83
2022-09-15T04:12:04.484Z,94.83
2022-09-15T04:13:04.613Z,94.82
2022-09-15T04:14:04.755Z,94.79
2022-09-15T04:15:04.984Z,94.75
2022-09-15T04:16:05.072Z,94.71
2022-09-15T04:17:05.130Z,94.70
2022-09-15T04:18:05.253Z,94.72
2022-09-15T04:19:05.376Z,94.68
2022-09-15T04:20:05.567Z,94.65
2022-09-15T04:21:05.662Z,94.67
2022-09-15T04:22:05.808Z,94.67
2022-09-15T04:23:05.902Z,94.70
2022-09-15T04:24:06.040Z,94.70
2022-09-15T04:25:06.210Z,94.70
2022-09-15T04:26:06.291Z,94.70
2022-09-15T04:27:06.433Z,94.70
2022-09-15T04:28:06.522Z,94.73
2022-09-15T04:29:06.658Z,94.77
2022-09-15T04:30:06.840Z,94.80
2022-09-15T04:31:06.991Z,94.81
2022-09-15T04:32:07.060Z,94.81
2022-09-15T04:33:07.183Z,94.76
2022-09-15T04:34:07.330Z,94.79
2022-09-15T04:35:07.448Z,94.77
2022-09-15T04:36:07.709Z,94.74
2022-09-15T04:37:07.644Z,94.75
2022-09-15T04:38:07.780Z,94.76
2022-09-15T04:39:07.919Z,94.75
2022-09-15T04:40:08.116Z,94.76
2022-09-15T04:41:08.230Z,94.77
2022-09-15T04:42:08.319Z,94.76
2022-09-15T04:43:08.457Z,94.78
2022-09-15T04:44:08.588Z,94.78
2022-09-15T04:45:08.740Z,94.74
2022-09-15T04:46:09.010Z,94.71
2022-09-15T04:47:09.038Z,94.71
2022-09-15T04:48:09.077Z,94.72
2022-09-15T04:49:09.217Z,94.74
2022-09-15T04:50:09.376Z,94.77
2022-09-15T04:51:09.607Z,94.78
2022-09-15T04:52:09.809Z,94.79
2022-09-15T04:53:09.736Z,94.76
2022-09-15T04:54:09.866Z,94.76
2022-09-15T04:55:10.007Z,94.79
2022-09-15T04:56:10.197Z,94.75
2022-09-15T04:57:10.308Z,94.69
2022-09-15T04:58:10.430Z,94.73
2022-09-15T04:59:10.515Z,94.76
2022-09-15T05:00:10.654Z,94.82
2022-09-15T05:01:10.965Z,94.80
2022-09-15T05:02:10.960Z,94.81
2022-09-15T05:03:11.043Z,94.83
2022-09-15T05:04:11.184Z,94.84
2022-09-15T05:05:11.325Z,94.85
2022-09-15T05:06:11.603Z,94.84
2022-09-15T05:07:11.572Z,94.84
2022-09-15T05:08:11.716Z,94.80
2022-09-15T05:09:11.855Z,94.77
2022-09-15T05:10:11.983Z,94.72
2022-09-15T05:11:12.173Z,94.70
2022-09-15T05:12:12.402Z,94.68
2022-09-15T05:13:12.381Z,94.66
2022-09-15T05:14:12.522Z,94.64
2022-09-15T05:15:12.671Z,94.64
2022-09-15T05:16:12.823Z,94.63
2022-09-15T05:17:12.870Z,94.61
2022-09-15T05:18:13.001Z,94.59
2022-09-15T05:19:13.140Z,94.52
2022-09-15T05:20:13.309Z,94.48
2022-09-15T05:21:13.515Z,94.45
2022-09-15T05:22:13.509Z,94.45
2022-09-15T05:23:13.650Z,94.42
2022-09-15T05:24:13.919Z,94.47
2022-09-15T05:25:13.911Z,94.47
2022-09-15T05:26:14.032Z,94.46
2022-09-15T05:27:14.186Z,94.44
2022-09-15T05:28:14.320Z,94.43
2022-09-15T05:29:14.669Z,94.40
2022-09-15T05:30:36.635Z,94.38
2022-09-15T05:31:15.731Z,94.41
2022-09-15T05:32:14.848Z,94.39
2022-09-15T05:33:14.937Z,94.38
2022-09-15T05:34:15.117Z,94.40
2022-09-15T05:35:15.218Z,94.41
2022-09-15T05:36:15.428Z,94.44
2022-09-15T05:37:15.437Z,94.38
2022-09-15T05:38:15.566Z,94.35
2022-09-15T05:39:15.712Z,94.35
2022-09-15T05:40:15.865Z,94.37
2022-09-15T05:41:16.095Z,94.39
2022-09-15T05:42:16.246Z,94.36
2022-09-15T05:43:16.245Z,94.33
2022-09-15T05:44:16.376Z,94.32
2022-09-15T05:45:16.532Z,94.35
2022-09-15T05:46:16.727Z,94.37
2022-09-15T05:47:16.745Z,94.39
2022-09-15T05:48:16.934Z,94.36
2022-09-15T05:49:17.053Z,94.30
2022-09-15T05:50:17.142Z,94.28
2022-09-15T05:51:17.351Z,94.23
2022-09-15T05:52:17.406Z,94.15
2022-09-15T05:53:17.541Z,94.14
2022-09-15T05:54:17.665Z,94.15
2022-09-15T05:55:17.813Z,94.15
2022-09-15T05:56:18.052Z,94.16
2022-09-15T05:57:18.052Z,94.10
2022-09-15T05:58:18.142Z,94.03
2022-09-15T05:59:18.268Z,94.00
2022-09-15T06:00:18.400Z,93.97
2022-09-15T06:01:18.660Z,93.92
2022-09-15T06:02:18.673Z,93.95
2022-09-15T06:03:18.852Z,93.95
2022-09-15T06:04:18.922Z,93.89
2022-09-15T06:05:19.070Z,93.80
2022-09-15T06:06:19.222Z,93.71
2022-09-15T06:07:19.437Z,93.77
2022-09-15T06:08:19.431Z,93.85
2022-09-15T06:09:19.560Z,93.75
2022-09-15T06:10:19.710Z,93.70
2022-09-15T06:11:19.880Z,93.67
2022-09-15T06:12:19.919Z,93.56
2022-09-15T06:13:20.039Z,93.48
2022-09-15T06:14:20.345Z,93.46
2022-09-15T06:15:20.341Z,93.42
2022-09-15T06:16:20.487Z,93.10
2022-09-15T06:17:20.668Z,93.08
2022-09-15T06:18:20.747Z,93.10
2022-09-15T06:19:20.887Z,92.78
2022-09-15T06:20:21.019Z,92.72
2022-09-15T06:21:21.159Z,92.73
2022-09-15T06:22:21.378Z,92.81
2022-09-15T06:23:21.405Z,92.78
2022-09-15T06:24:21.538Z,92.84
2022-09-15T06:25:21.667Z,92.77
2022-09-15T06:26:22.078Z,92.74
2022-09-15T06:27:21.946Z,92.39
2022-09-15T06:28:22.075Z,92.33
2022-09-15T06:29:22.216Z,92.35
2022-09-15T06:30:22.364Z,92.47
2022-09-15T06:31:22.594Z,92.48
2022-09-15T06:32:22.765Z,92.42
2022-09-15T06:33:22.753Z,92.33
2022-09-15T06:34:22.894Z,92.18
2022-09-15T06:35:23.032Z,92.09
2022-09-15T06:36:23.153Z,92.27
2022-09-15T06:37:23.445Z,92.34
2022-09-15T06:38:23.405Z,92.37
2022-09-15T06:39:23.583Z,92.36
2022-09-15T06:40:23.731Z,92.33
2022-09-15T06:41:23.786Z,92.30
2022-09-15T06:42:23.962Z,92.44
2022-09-15T06:43:24.041Z,92.44
2022-09-15T06:44:24.170Z,92.31
2022-09-15T06:45:24.303Z,92.43
2022-09-15T06:46:24.499Z,92.46
2022-09-15T06:47:24.621Z,92.56
2022-09-15T06:48:25.315Z,92.32
2022-09-15T06:49:24.984Z,92.22
2022-09-15T06:50:25.026Z,92.34
2022-09-15T06:51:25.081Z,92.32
2022-09-15T06:52:25.350Z,92.35
2022-09-15T06:53:25.359Z,92.50
2022-09-15T06:54:25.581Z,92.55
2022-09-15T06:55:25.570Z,92.21
2022-09-15T06:56:25.701Z,91.90
2022-09-15T06:57:25.834Z,91.97
2022-09-15T06:58:25.959Z,91.86
2022-09-15T06:59:26.190Z,91.74
2022-09-15T07:00:26.302Z,91.85
2022-09-15T07:01:26.380Z,91.99
2022-09-15T07:02:26.570Z,92.11
2022-09-15T07:03:26.792Z,92.11
2022-09-15T07:04:26.809Z,92.20
2022-09-15T07:05:26.898Z,92.16
2022-09-15T07:06:26.978Z,92.03
2022-09-15T07:07:27.117Z,91.77
2022-09-15T07:08:27.357Z,91.53
2022-09-15T07:09:27.381Z,91.47
2022-09-15T07:10:27.530Z,91.63
2022-09-15T07:11:27.637Z,91.79
2022-09-15T07:12:27.783Z,91.82
2022-09-15T07:13:28.008Z,91.89
2022-09-15T07:14:28.048Z,91.97
2022-09-15T07:15:28.175Z,92.00
2022-09-15T07:16:28.326Z,92.05
2022-09-15T07:17:28.366Z,92.01
2022-09-15T07:18:28.627Z,91.78
2022-09-15T07:19:28.616Z,91.55
2022-09-15T07:20:28.777Z,91.70
2022-09-15T07:21:28.869Z,91.87
2022-09-15T07:22:28.995Z,91.55
2022-09-15T07:23:29.203Z,91.69
2022-09-15T07:24:29.414Z,91.67
2022-09-15T07:25:29.407Z,91.53
2022-09-15T07:26:29.539Z,91.68
2022-09-15T07:27:29.674Z,91.85
2022-09-15T07:28:29.944Z,91.63
2022-09-15T07:29:29.933Z,91.28
2022-09-15T07:30:30.073Z,91.29
2022-09-15T07:31:30.278Z,91.12
2022-09-15T07:32:30.366Z,91.23
2022-09-15T07:33:30.512Z,91.51
2022-09-15T07:34:30.582Z,91.32
2022-09-15T07:35:35.979Z,91.18
2022-09-15T07:36:30.822Z,91.31
2022-09-15T07:37:30.951Z,91.27
2022-09-15T07:38:31.087Z,90.87
2022-09-15T07:39:31.222Z,90.67
2022-09-15T07:40:31.508Z,90.56
2022-09-15T07:41:31.461Z,90.28
2022-09-15T07:42:35.287Z,90.08
2022-09-15T07:43:31.828Z,90.12
2022-09-15T07:44:31.842Z,89.94
2022-09-15T07:45:32.082Z,90.04
2022-09-15T07:46:32.121Z,89.99
2022-09-15T07:47:32.200Z,89.92
2022-09-15T07:48:32.540Z,89.67
2022-09-15T07:49:32.494Z,89.55
2022-09-15T07:50:32.586Z,89.75
2022-09-15T07:51:32.700Z,89.26
2022-09-15T07:52:32.829Z,89.34
2022-09-15T07:53:33.201Z,89.41
2022-09-15T07:54:33.089Z,88.81
2022-09-15T07:55:33.248Z,89.13
2022-09-15T07:56:33.360Z,89.35
2022-09-15T07:57:33.498Z,88.75
2022-09-15T07:58:33.746Z,88.68
2022-09-15T07:59:34.917Z,88.75
2022-09-15T08:00:33.964Z,88.97
2022-09-15T08:01:34.062Z,88.92
2022-09-15T08:02:34.168Z,88.95
2022-09-15T08:03:34.377Z,88.65
2022-09-15T08:04:34.396Z,88.93
2022-09-15T08:05:38.654Z,88.52
2022-09-15T08:06:35.647Z,88.48
2022-09-15T08:07:34.783Z,88.91
2022-09-15T08:08:34.937Z,88.81
2022-09-15T08:09:35.036Z,88.86
2022-09-15T08:10:35.166Z,88.96
2022-09-15T08:11:35.307Z,88.62
2022-09-15T08:12:35.446Z,88.97
2022-09-15T08:13:35.625Z,88.20
2022-09-15T08:14:35.705Z,88.26
2022-09-15T08:15:35.855Z,88.26
2022-09-15T08:16:35.980Z,88.38
2022-09-15T08:17:36.086Z,88.29
2022-09-15T08:18:36.233Z,88.01
2022-09-15T08:19:36.423Z,88.05
2022-09-15T08:20:36.444Z,88.22
2022-09-15T08:21:36.584Z,88.04
2022-09-15T08:22:36.724Z,88.01
2022-09-15T08:23:36.874Z,88.35
2022-09-15T08:24:37.053Z,88.80
2022-09-15T08:25:37.103Z,88.65
2022-09-15T08:26:37.264Z,88.34
2022-09-15T08:27:37.362Z,87.85
2022-09-15T08:28:37.504Z,88.17
2022-09-15T08:29:37.696Z,88.67
2022-09-15T08:30:37.802Z,88.82
2022-09-15T08:31:37.928Z,88.55
2022-09-15T08:32:38.044Z,88.18
2022-09-15T08:33:41.835Z,88.24
2022-09-15T08:34:39.321Z,87.96
2022-09-15T08:35:38.454Z,87.98
2022-09-15T08:36:38.583Z,88.39
2022-09-15T08:37:38.730Z,87.73
2022-09-15T08:38:38.873Z,87.68
2022-09-15T08:39:39.034Z,87.64
2022-09-15T08:40:39.139Z,87.93
2022-09-15T08:41:39.572Z,87.67
2022-09-15T08:42:44.206Z,87.51
2022-09-15T08:43:40.629Z,87.61
2022-09-15T08:44:39.699Z,87.77
2022-09-15T08:45:39.843Z,87.56
2022-09-15T08:46:40.182Z,87.33
2022-09-15T08:47:40.160Z,87.65
2022-09-15T08:48:40.244Z,87.53
2022-09-15T08:49:51.446Z,87.45
2022-09-15T08:50:41.589Z,87.70
2022-09-15T08:51:40.609Z,88.02
2022-09-15T08:52:40.751Z,88.00
2022-09-15T08:53:40.943Z,87.60
2022-09-15T08:54:41.016Z,87.43
2022-09-15T08:55:41.197Z,87.14
2022-09-15T08:56:41.290Z,87.26
2022-09-15T08:57:41.436Z,87.10
2022-09-15T08:58:41.568Z,86.76
2022-09-15T08:59:41.717Z,86.38
2022-09-15T09:01:57.625Z,85.94
2022-09-15T09:02:57.644Z,86.77
2022-09-15T09:03:57.761Z,86.52
2022-09-15T09:04:57.811Z,86.29
2022-09-15T09:05:58.143Z,85.79
2022-09-15T09:06:58.061Z,85.60
2022-09-15T09:07:58.199Z,86.21
2022-09-15T09:08:58.344Z,86.93
2022-09-15T09:09:58.468Z,85.67
2022-09-15T09:10:58.819Z,84.78
2022-09-15T09:11:58.749Z,84.89
2022-09-15T09:12:58.879Z,85.22
2022-09-15T09:13:59.006Z,85.41
2022-09-15T09:14:59.146Z,85.24
2022-09-15T09:15:59.444Z,84.48
2022-09-15T09:16:59.407Z,84.53
2022-09-15T09:17:59.549Z,84.35
2022-09-15T09:18:59.687Z,84.88
2022-09-15T09:19:59.827Z,83.82
2022-09-15T09:21:00.073Z,84.14
2022-09-15T09:22:00.267Z,84.08
2022-09-15T09:23:00.369Z,84.60
2022-09-15T09:24:00.355Z,84.51
2022-09-15T09:25:05.894Z,83.99
2022-09-15T09:26:01.608Z,83.87
2022-09-15T09:27:00.772Z,83.85
2022-09-15T09:28:01.036Z,84.02
2022-09-15T09:29:01.133Z,85.05
2022-09-15T09:30:01.157Z,84.26
2022-09-15T09:31:01.332Z,83.62
2022-09-15T09:32:01.389Z,83.82
2022-09-15T09:33:01.697Z,83.65
2022-09-15T09:34:01.686Z,83.22
2022-09-15T09:35:01.815Z,83.27
2022-09-15T09:36:01.945Z,83.27
2022-09-15T09:37:02.083Z,84.90
2022-09-15T09:38:02.315Z,85.39
2022-09-15T09:39:02.462Z,83.98
2022-09-15T09:40:02.528Z,84.88
2022-09-15T09:41:02.895Z,84.63
2022-09-15T09:42:02.765Z,84.75
2022-09-15T09:43:03.083Z,84.94
2022-09-15T09:44:03.102Z,82.53
2022-09-15T09:45:03.122Z,83.16
2022-09-15T09:46:03.308Z,83.47
2022-09-15T09:47:03.403Z,85.05
2022-09-15T09:48:03.532Z,82.80
2022-09-15T09:49:03.873Z,83.22
2022-09-15T09:50:03.783Z,84.21
2022-09-15T09:51:03.932Z,83.05
2022-09-15T09:52:04.062Z,83.47
2022-09-15T09:53:04.182Z,82.87
2022-09-15T09:54:04.453Z,82.55
2022-09-15T09:55:04.513Z,81.46
2022-09-15T09:56:04.555Z,82.64
2022-09-15T09:57:04.702Z,81.76
2022-09-15T09:58:04.861Z,82.26
2022-09-15T09:59:04.953Z,82.06
2022-09-15T10:00:05.161Z,81.69
2022-09-15T10:01:05.290Z,81.70
2022-09-15T10:02:05.352Z,82.02
2022-09-15T10:03:05.492Z,81.62
2022-09-15T10:04:05.621Z,81.29
2022-09-15T10:05:06.083Z,80.82
2022-09-15T10:06:05.911Z,81.02
2022-09-15T10:07:06.061Z,80.72
2022-09-15T10:08:06.194Z,80.73
2022-09-15T10:09:06.300Z,80.74
2022-09-15T10:10:06.651Z,80.02
2022-09-15T10:11:06.833Z,79.29
2022-09-15T10:12:06.632Z,79.56
2022-09-15T10:13:06.781Z,79.54
2022-09-15T10:14:06.920Z,80.26
2022-09-15T10:15:07.080Z,81.95
2022-09-15T10:16:07.259Z,81.46
2022-09-15T10:17:07.373Z,80.60
2022-09-15T10:18:07.408Z,80.20
2022-09-15T10:19:07.528Z,76.94
2022-09-15T10:20:07.729Z,77.23
2022-09-15T10:21:07.750Z,76.22
2022-09-15T10:22:07.960Z,74.59
2022-09-15T10:23:08.028Z,74.03
2022-09-15T10:24:08.119Z,74.79
2022-09-15T10:25:08.278Z,74.78
2022-09-15T10:26:08.358Z,75.44
2022-09-15T10:27:08.618Z,76.41
2022-09-15T10:28:08.758Z,76.95
2022-09-15T10:29:08.748Z,76.44
2022-09-15T10:30:08.838Z,75.80
2022-09-15T10:31:08.977Z,75.44
2022-09-15T10:32:09.086Z,75.76
2022-09-15T10:33:09.237Z,74.46
2022-09-15T10:34:09.537Z,74.00
2022-09-15T10:35:09.466Z,75.29
2022-09-15T10:36:09.596Z,77.48
2022-09-15T10:37:09.838Z,75.87
2022-09-15T10:38:09.900Z,75.70
2022-09-15T10:39:09.986Z,76.80
2022-09-15T10:40:10.169Z,75.21
2022-09-15T10:41:10.286Z,74.17
2022-09-15T10:42:10.412Z,72.55
2022-09-15T10:43:10.506Z,72.03
2022-09-15T10:44:10.656Z,73.00
2022-09-15T10:45:10.808Z,72.01
2022-09-15T10:46:10.958Z,70.27
2022-09-15T10:47:11.417Z,70.51
2022-09-15T10:48:11.145Z,69.74
2022-09-15T10:49:11.235Z,69.58
2022-09-15T10:50:11.528Z,71.37
2022-09-15T10:51:11.515Z,74.72
2022-09-15T10:52:11.656Z,69.66
2022-09-15T10:53:11.795Z,69.38
2022-09-15T10:54:11.944Z,68.85
2022-09-15T10:55:12.166Z,68.06
2022-09-15T10:56:12.156Z,68.19
2022-09-15T10:57:12.365Z,67.82
2022-09-15T10:58:12.404Z,68.90
2022-09-15T10:59:12.545Z,68.71
2022-09-15T11:00:12.694Z,67.61
2022-09-15T11:01:12.962Z,68.42
2022-09-15T11:02:12.953Z,68.54
2022-09-15T11:03:13.063Z,68.77
2022-09-15T11:04:13.207Z,68.30
2022-09-15T11:05:13.314Z,68.10
2022-09-15T11:06:13.539Z,68.22
2022-09-15T11:07:13.514Z,68.78
2022-09-15T11:08:13.652Z,69.83
2022-09-15T11:09:13.836Z,69.41
2022-09-15T11:10:13.920Z,68.90
2022-09-15T11:11:14.082Z,69.67
2022-09-15T11:12:14.363Z,67.65
2022-09-15T11:13:14.303Z,67.69
2022-09-15T11:14:14.445Z,67.27
2022-09-15T11:15:14.616Z,67.61
2022-09-15T11:16:14.730Z,68.23
2022-09-15T11:17:15.115Z,67.84
2022-09-15T11:18:14.953Z,66.92
2022-09-15T11:19:15.073Z,65.42
2022-09-15T11:20:15.172Z,64.90
2022-09-15T11:21:15.314Z,67.42
2022-09-15T11:22:15.492Z,65.29
2022-09-15T11:23:15.633Z,66.86
2022-09-15T11:24:15.702Z,66.58
2022-09-15T11:25:15.812Z,66.32
2022-09-15T11:26:15.973Z,66.63
2022-09-15T11:27:16.173Z,65.75
2022-09-15T11:28:16.321Z,66.60
2022-09-15T11:29:16.483Z,65.76
2022-09-15T11:30:16.444Z,65.66
2022-09-15T11:31:16.586Z,64.94
2022-09-15T11:32:16.791Z,66.27
2022-09-15T11:33:16.799Z,70.74
2022-09-15T11:34:16.901Z,68.08
2022-09-15T11:35:17.032Z,66.38
2022-09-15T11:36:17.171Z,64.98
2022-09-15T11:37:17.331Z,64.61
2022-09-15T11:38:17.410Z,64.68
2022-09-15T11:39:17.550Z,63.29
2022-09-15T11:40:17.760Z,62.28
2022-09-15T11:41:17.791Z,61.85
2022-09-15T11:42:18.030Z,61.10
2022-09-15T11:43:17.998Z,61.86
2022-09-15T11:44:18.132Z,61.11
2022-09-15T11:45:18.371Z,61.91
2022-09-15T11:46:18.468Z,62.67
2022-09-15T11:47:18.560Z,64.36
2022-09-15T11:48:18.639Z,62.43
2022-09-15T11:49:18.789Z,62.75
2022-09-15T11:50:18.980Z,62.92
2022-09-15T11:51:19.020Z,68.10
2022-09-15T11:52:19.159Z,64.43
2022-09-15T11:53:19.308Z,64.53
2022-09-15T11:54:19.409Z,65.26
2022-09-15T11:56:35.142Z,65.43
2022-09-15T11:57:35.172Z,65.23
2022-09-15T11:58:35.301Z,64.91
2022-09-15T11:59:35.461Z,63.08
2022-09-15T12:00:35.560Z,65.23
2022-09-15T12:01:35.800Z,64.61
2022-09-15T12:02:35.842Z,64.55
2022-09-15T12:03:35.920Z,64.38
2022-09-15T12:04:36.009Z,65.28
2022-09-15T12:05:36.139Z,65.13
2022-09-15T12:06:36.320Z,65.29
2022-09-15T12:07:36.379Z,64.78
2022-09-15T12:08:36.585Z,65.31
2022-09-15T12:09:36.679Z,64.71
2022-09-15T12:10:36.779Z,64.86
2022-09-15T12:11:36.960Z,64.85
2022-09-15T12:12:37.016Z,65.95
2022-09-15T12:13:37.353Z,64.81
2022-09-15T12:14:37.276Z,64.94
2022-09-15T12:15:37.446Z,65.35
2022-09-15T12:16:37.524Z,66.02
2022-09-15T12:17:37.659Z,64.51
2022-09-15T12:18:40.759Z,64.52
2022-09-15T12:19:37.917Z,64.41
2022-09-15T12:20:38.057Z,63.50
2022-09-15T12:21:38.207Z,61.95
2022-09-15T12:22:38.298Z,61.81
2022-09-15T12:23:59.496Z,62.43
2022-09-15T12:24:38.588Z,62.13
2022-09-15T12:25:38.707Z,62.44
2022-09-15T12:26:38.817Z,60.95
2022-09-15T12:27:38.916Z,60.85
2022-09-15T12:28:39.029Z,62.91
2022-09-15T12:30:00.193Z,62.57
2022-09-15T12:30:39.262Z,60.99
2022-09-15T12:31:39.476Z,60.83
2022-09-15T12:32:39.465Z,60.68
2022-09-15T12:33:39.606Z,59.94
2022-09-15T12:34:39.736Z,61.29
2022-09-15T12:35:40.006Z,60.87
2022-09-15T12:36:40.027Z,60.52
2022-09-15T12:37:40.136Z,60.26
2022-09-15T12:38:40.235Z,62.10
2022-09-15T12:39:40.375Z,61.18
2022-09-15T12:40:40.616Z,61.28
2022-09-15T12:41:40.605Z,62.25
2022-09-15T12:42:40.725Z,63.43
2022-09-15T12:43:40.846Z,63.25
2022-09-15T12:44:40.965Z,61.85
2022-09-15T12:46:02.179Z,61.62
2022-09-15T12:46:41.235Z,62.57
2022-09-15T12:47:41.303Z,63.38
2022-09-15T12:48:45.557Z,63.28
2022-09-15T12:49:42.544Z,64.00
2022-09-15T12:50:41.697Z,64.41
2022-09-15T12:51:41.874Z,62.91
2022-09-15T12:52:41.918Z,63.97
2022-09-15T12:53:43.430Z,63.52
2022-09-15T12:54:42.124Z,64.88
2022-09-15T12:55:42.274Z,63.82
2022-09-15T12:56:42.443Z,65.33